Alexander 3 — SW6137 — position and weather

sailwx.info

Track history (hours):
 
Tides and Currents Weather Stations Pressure Air Temp Water Temp Dewpoint Dewpoint Depression Visibility Wind Speed Wind Dir Waves Ship Positions

Alexander 3

Last reported at 2014-Aug-22 11:33 UTC. Time now 2014-Aug-22 11:53 UTC.
Position N 38°00' E 023°32'.

Length 38 m; draft 5.6 m.

Type: Tug. MMSI: 240733000.

Date/timePositionNaut miles runAvg speedWind from/ knotsBaromVisibWave heightAir tempDewpointWater temp
2014-Aug-22 11:33N 38°00' E 023°32'7 7.1
2014-Aug-22 10:32N 37°58' E 023°23'1 0.6
2014-Aug-22 09:28N 37°58' E 023°24'0 0.0
2014-Aug-22 08:33N 37°58' E 023°24'6 5.0
2014-Aug-22 07:21N 38°00' E 023°31'5 6.3
2014-Aug-22 06:33N 37°57' E 023°36'0 0.0
2014-Aug-22 05:33N 37°57' E 023°36'1 0.8
2014-Aug-22 04:33N 37°57' E 023°35'2 1.8
2014-Aug-22 03:33N 37°56' E 023°37'0 0.0
2014-Aug-21 10:29N 37°56' E 023°37'0 0.0
2014-Aug-21 09:33N 37°56' E 023°37'1 0.7
2014-Aug-21 08:33N 37°56' E 023°37'9 8.9
2014-Aug-21 07:33N 37°52' E 023°26'7 6.6
2014-Aug-21 06:33N 37°58' E 023°23'1 0.8
2014-Aug-21 05:33N 37°58' E 023°24'1 0.7
2014-Aug-21 04:33N 37°58' E 023°24'5 4.6
2014-Aug-21 03:33N 37°54' E 023°23'8 7.7
2014-Aug-21 02:33N 37°54' E 023°33'4 0.2
2014-Aug-20 04:33N 37°57' E 023°36'2 0.1
2014-Aug-18 21:29N 37°56' E 023°37'0 0.0
2014-Aug-18 20:33N 37°56' E 023°37'2 2.0
2014-Aug-18 19:33N 37°57' E 023°35'2 2.0
2014-Aug-18 18:33N 37°56' E 023°37'0 0.0
2014-Aug-18 10:33N 37°56' E 023°37'1 1.4
2014-Aug-18 09:34N 37°57' E 023°36'0 0.0
2014-Aug-18 08:34N 37°57' E 023°36'0 0.0
2014-Aug-18 07:33N 37°57' E 023°36'0 0.0
2014-Aug-18 06:34N 37°57' E 023°36'0 0.0
2014-Aug-18 05:33N 37°57' E 023°36'2 1.6
2014-Aug-18 04:33N 37°56' E 023°35'2 0.7
2014-Aug-18 01:21N 37°56' E 023°37'0 0.0
2014-Aug-18 00:17N 37°56' E 023°37'1 0.2
2014-Aug-17 17:27N 37°57' E 023°36'0 0.0
2014-Aug-17 16:33N 37°57' E 023°36'0 0.0
2014-Aug-17 15:33N 37°57' E 023°36'0 0.0
2014-Aug-17 14:34N 37°57' E 023°36'0 0.0
2014-Aug-17 13:33N 37°57' E 023°36'0 0.0
2014-Aug-17 12:33N 37°57' E 023°36'0 0.0
2014-Aug-17 11:33N 37°57' E 023°36'0 0.0
2014-Aug-17 10:33N 37°57' E 023°36'0 0.0
2014-Aug-17 09:33N 37°57' E 023°36'0 0.0
2014-Aug-17 08:34N 37°57' E 023°36'0 0.0
2014-Aug-17 07:33N 37°57' E 023°36'0 0.0
2014-Aug-17 06:33N 37°57' E 023°36'0 0.0
2014-Aug-17 05:34N 37°57' E 023°36'0 0.0
2014-Aug-17 04:33N 37°57' E 023°36'0 0.0
2014-Aug-17 03:33N 37°57' E 023°36'0 0.0
2014-Aug-17 02:33N 37°57' E 023°36'1 0.9
2014-Aug-17 01:33N 37°57' E 023°35'2 2.0
2014-Aug-17 00:33N 37°56' E 023°37'0 0.0
2014-Aug-16 10:20N 37°56' E 023°37'1 1.7
2014-Aug-16 09:33N 37°57' E 023°36'0 0.0
2014-Aug-16 08:33N 37°57' E 023°36'0 0.0
2014-Aug-16 07:33N 37°57' E 023°36'0 0.0
2014-Aug-16 06:33N 37°57' E 023°36'0 0.4
2014-Aug-16 05:33N 37°58' E 023°36'1 0.9
2014-Aug-16 04:33N 37°57' E 023°35'2 1.7
2014-Aug-16 03:33N 37°56' E 023°37'3 0.2
2014-Aug-15 09:33N 37°57' E 023°34'6 5.5
2014-Aug-15 08:32N 38°02' E 023°30'0 0.0
2014-Aug-15 07:33N 38°02' E 023°30'0 0.0
2014-Aug-15 06:33N 38°02' E 023°30'0 0.0
2014-Aug-15 05:33N 38°02' E 023°30'0 0.0
2014-Aug-15 04:33N 38°02' E 023°30'0 0.0
2014-Aug-15 03:33N 38°02' E 023°30'0 0.0
2014-Aug-15 02:33N 38°02' E 023°30'0 0.0
2014-Aug-15 01:33N 38°02' E 023°30'0 0.0
2014-Aug-15 00:33N 38°02' E 023°30'0 0.0
2014-Aug-14 23:33N 38°02' E 023°30'0 0.0
2014-Aug-14 22:33N 38°02' E 023°30'0 0.0
2014-Aug-14 21:33N 38°02' E 023°30'0 0.0
2014-Aug-14 20:31N 38°02' E 023°30'0 0.0
2014-Aug-14 19:33N 38°02' E 023°30'0 0.0
2014-Aug-14 18:32N 38°02' E 023°30'0 0.0
2014-Aug-14 17:32N 38°02' E 023°30'0 0.0
2014-Aug-14 16:33N 38°02' E 023°30'0 0.2
2014-Aug-14 15:33N 38°02' E 023°31'0 0.0
2014-Aug-14 14:33N 38°02' E 023°31'0 0.0
2014-Aug-14 13:33N 38°02' E 023°31'0 0.0
2014-Aug-14 12:33N 38°02' E 023°31'0 0.0
2014-Aug-14 11:33N 38°02' E 023°31'0 0.0
2014-Aug-14 10:33N 38°02' E 023°31'0 0.0
2014-Aug-14 09:33N 38°02' E 023°31'0 0.0
2014-Aug-14 08:33N 38°02' E 023°31'0 0.0
2014-Aug-14 07:33N 38°02' E 023°31'0 0.0
2014-Aug-14 06:33N 38°02' E 023°31'0 0.0
2014-Aug-14 05:33N 38°02' E 023°31'0 0.0
2014-Aug-14 04:33N 38°02' E 023°31'0 0.0
2014-Aug-14 03:33N 38°02' E 023°31'0 0.0
2014-Aug-14 02:33N 38°02' E 023°31'0 0.0
2014-Aug-14 01:33N 38°02' E 023°31'0 0.0
2014-Aug-14 00:33N 38°02' E 023°31'0 0.0
2014-Aug-13 23:32N 38°02' E 023°31'0 0.0
2014-Aug-13 22:33N 38°02' E 023°31'0 0.0
2014-Aug-13 21:33N 38°02' E 023°31'0 0.0
2014-Aug-13 20:33N 38°02' E 023°31'0 0.0
2014-Aug-13 19:33N 38°02' E 023°31'0 0.0
2014-Aug-13 18:33N 38°02' E 023°31'0 0.0
2014-Aug-13 17:33N 38°02' E 023°31'0 0.0
2014-Aug-13 16:33N 38°02' E 023°31'0 0.0
2014-Aug-13 15:33N 38°02' E 023°31'0 0.0
2014-Aug-13 14:33N 38°02' E 023°31'0 0.0
2014-Aug-13 13:33N 38°02' E 023°31'0 0.0
2014-Aug-13 12:33N 38°02' E 023°31'0 0.0
2014-Aug-13 11:33N 38°02' E 023°31'5 5.1
2014-Aug-13 10:33N 37°58' E 023°34'2 2.2
2014-Aug-13 09:33N 37°56' E 023°36'1 0.7
2014-Aug-13 08:33N 37°56' E 023°35'1 1.5
2014-Aug-13 07:33N 37°57' E 023°35'1 1.1
2014-Aug-13 06:33N 37°57' E 023°37'0 0.0
2014-Aug-13 05:33N 37°57' E 023°37'0 0.0
2014-Aug-13 04:33N 37°57' E 023°37'1 1.1
2014-Aug-13 03:33N 37°57' E 023°35'2 0.2
2014-Aug-12 18:04N 37°56' E 023°37'2 3.9
2014-Aug-12 17:33N 37°57' E 023°35'0 0.3
2014-Aug-12 16:33N 37°57' E 023°35'1 1.0
2014-Aug-12 15:33N 37°57' E 023°36'0 0.0
2014-Aug-12 14:33N 37°57' E 023°36'0 0.0
2014-Aug-12 13:33N 37°57' E 023°36'0 0.0
2014-Aug-12 12:33N 37°57' E 023°36'0 0.0
2014-Aug-12 11:33N 37°57' E 023°36'  
Track history (hours):
 
Tides and Currents Weather Stations Pressure Air Temp Water Temp Dewpoint Dewpoint Depression Visibility Wind Speed Wind Dir Waves Ship Positions

Alexander 3

Last reported at 2014-Aug-22 11:33 UTC. Time now 2014-Aug-22 11:53 UTC.
Position N 38°00' E 023°32'.

Length 38 m; draft 5.6 m.

Type: Tug. MMSI: 240733000.

Date/timePositionNaut miles runAvg speedWind from/ knotsBaromVisibWave heightAir tempDewpointWater temp
2014-Aug-22 11:33N 38°00' E 023°32'7 7.1
2014-Aug-22 10:32N 37°58' E 023°23'1 0.6
2014-Aug-22 09:28N 37°58' E 023°24'0 0.0
2014-Aug-22 08:33N 37°58' E 023°24'6 5.0
2014-Aug-22 07:21N 38°00' E 023°31'5 6.3
2014-Aug-22 06:33N 37°57' E 023°36'0 0.0
2014-Aug-22 05:33N 37°57' E 023°36'1 0.8
2014-Aug-22 04:33N 37°57' E 023°35'2 1.8
2014-Aug-22 03:33N 37°56' E 023°37'0 0.0
2014-Aug-21 10:29N 37°56' E 023°37'0 0.0
2014-Aug-21 09:33N 37°56' E 023°37'1 0.7
2014-Aug-21 08:33N 37°56' E 023°37'9 8.9
2014-Aug-21 07:33N 37°52' E 023°26'7 6.6
2014-Aug-21 06:33N 37°58' E 023°23'1 0.8
2014-Aug-21 05:33N 37°58' E 023°24'1 0.7
2014-Aug-21 04:33N 37°58' E 023°24'5 4.6
2014-Aug-21 03:33N 37°54' E 023°23'8 7.7
2014-Aug-21 02:33N 37°54' E 023°33'4 0.2
2014-Aug-20 04:33N 37°57' E 023°36'2 0.1
2014-Aug-18 21:29N 37°56' E 023°37'0 0.0
2014-Aug-18 20:33N 37°56' E 023°37'2 2.0
2014-Aug-18 19:33N 37°57' E 023°35'2 2.0
2014-Aug-18 18:33N 37°56' E 023°37'0 0.0
2014-Aug-18 10:33N 37°56' E 023°37'1 1.4
2014-Aug-18 09:34N 37°57' E 023°36'0 0.0
2014-Aug-18 08:34N 37°57' E 023°36'0 0.0
2014-Aug-18 07:33N 37°57' E 023°36'0 0.0
2014-Aug-18 06:34N 37°57' E 023°36'0 0.0
2014-Aug-18 05:33N 37°57' E 023°36'2 1.6
2014-Aug-18 04:33N 37°56' E 023°35'2 0.7
2014-Aug-18 01:21N 37°56' E 023°37'0 0.0
2014-Aug-18 00:17N 37°56' E 023°37'1 0.2
2014-Aug-17 17:27N 37°57' E 023°36'0 0.0
2014-Aug-17 16:33N 37°57' E 023°36'0 0.0
2014-Aug-17 15:33N 37°57' E 023°36'0 0.0
2014-Aug-17 14:34N 37°57' E 023°36'0 0.0
2014-Aug-17 13:33N 37°57' E 023°36'0 0.0
2014-Aug-17 12:33N 37°57' E 023°36'0 0.0
2014-Aug-17 11:33N 37°57' E 023°36'0 0.0
2014-Aug-17 10:33N 37°57' E 023°36'0 0.0
2014-Aug-17 09:33N 37°57' E 023°36'0 0.0
2014-Aug-17 08:34N 37°57' E 023°36'0 0.0
2014-Aug-17 07:33N 37°57' E 023°36'0 0.0
2014-Aug-17 06:33N 37°57' E 023°36'0 0.0
2014-Aug-17 05:34N 37°57' E 023°36'0 0.0
2014-Aug-17 04:33N 37°57' E 023°36'0 0.0
2014-Aug-17 03:33N 37°57' E 023°36'0 0.0
2014-Aug-17 02:33N 37°57' E 023°36'1 0.9
2014-Aug-17 01:33N 37°57' E 023°35'2 2.0
2014-Aug-17 00:33N 37°56' E 023°37'0 0.0
2014-Aug-16 10:20N 37°56' E 023°37'1 1.7
2014-Aug-16 09:33N 37°57' E 023°36'0 0.0
2014-Aug-16 08:33N 37°57' E 023°36'0 0.0
2014-Aug-16 07:33N 37°57' E 023°36'0 0.0
2014-Aug-16 06:33N 37°57' E 023°36'0 0.4
2014-Aug-16 05:33N 37°58' E 023°36'1 0.9
2014-Aug-16 04:33N 37°57' E 023°35'2 1.7
2014-Aug-16 03:33N 37°56' E 023°37'3 0.2
2014-Aug-15 09:33N 37°57' E 023°34'6 5.5
2014-Aug-15 08:32N 38°02' E 023°30'0 0.0
2014-Aug-15 07:33N 38°02' E 023°30'0 0.0
2014-Aug-15 06:33N 38°02' E 023°30'0 0.0
2014-Aug-15 05:33N 38°02' E 023°30'0 0.0
2014-Aug-15 04:33N 38°02' E 023°30'0 0.0
2014-Aug-15 03:33N 38°02' E 023°30'0 0.0
2014-Aug-15 02:33N 38°02' E 023°30'0 0.0
2014-Aug-15 01:33N 38°02' E 023°30'0 0.0
2014-Aug-15 00:33N 38°02' E 023°30'0 0.0
2014-Aug-14 23:33N 38°02' E 023°30'0 0.0
2014-Aug-14 22:33N 38°02' E 023°30'0 0.0
2014-Aug-14 21:33N 38°02' E 023°30'0 0.0
2014-Aug-14 20:31N 38°02' E 023°30'0 0.0
2014-Aug-14 19:33N 38°02' E 023°30'0 0.0
2014-Aug-14 18:32N 38°02' E 023°30'0 0.0
2014-Aug-14 17:32N 38°02' E 023°30'0 0.0
2014-Aug-14 16:33N 38°02' E 023°30'0 0.2
2014-Aug-14 15:33N 38°02' E 023°31'0 0.0
2014-Aug-14 14:33N 38°02' E 023°31'0 0.0
2014-Aug-14 13:33N 38°02' E 023°31'0 0.0
2014-Aug-14 12:33N 38°02' E 023°31'0 0.0
2014-Aug-14 11:33N 38°02' E 023°31'0 0.0
2014-Aug-14 10:33N 38°02' E 023°31'0 0.0
2014-Aug-14 09:33N 38°02' E 023°31'0 0.0
2014-Aug-14 08:33N 38°02' E 023°31'0 0.0
2014-Aug-14 07:33N 38°02' E 023°31'0 0.0
2014-Aug-14 06:33N 38°02' E 023°31'0 0.0
2014-Aug-14 05:33N 38°02' E 023°31'0 0.0
2014-Aug-14 04:33N 38°02' E 023°31'0 0.0
2014-Aug-14 03:33N 38°02' E 023°31'0 0.0
2014-Aug-14 02:33N 38°02' E 023°31'0 0.0
2014-Aug-14 01:33N 38°02' E 023°31'0 0.0
2014-Aug-14 00:33N 38°02' E 023°31'0 0.0
2014-Aug-13 23:32N 38°02' E 023°31'0 0.0
2014-Aug-13 22:33N 38°02' E 023°31'0 0.0
2014-Aug-13 21:33N 38°02' E 023°31'0 0.0
2014-Aug-13 20:33N 38°02' E 023°31'0 0.0
2014-Aug-13 19:33N 38°02' E 023°31'0 0.0
2014-Aug-13 18:33N 38°02' E 023°31'0 0.0
2014-Aug-13 17:33N 38°02' E 023°31'0 0.0
2014-Aug-13 16:33N 38°02' E 023°31'0 0.0
2014-Aug-13 15:33N 38°02' E 023°31'0 0.0
2014-Aug-13 14:33N 38°02' E 023°31'0 0.0
2014-Aug-13 13:33N 38°02' E 023°31'0 0.0
2014-Aug-13 12:33N 38°02' E 023°31'0 0.0
2014-Aug-13 11:33N 38°02' E 023°31'5 5.1
2014-Aug-13 10:33N 37°58' E 023°34'2 2.2
2014-Aug-13 09:33N 37°56' E 023°36'1 0.7
2014-Aug-13 08:33N 37°56' E 023°35'1 1.5
2014-Aug-13 07:33N 37°57' E 023°35'1 1.1
2014-Aug-13 06:33N 37°57' E 023°37'0 0.0
2014-Aug-13 05:33N 37°57' E 023°37'0 0.0
2014-Aug-13 04:33N 37°57' E 023°37'1 1.1
2014-Aug-13 03:33N 37°57' E 023°35'2 0.2
2014-Aug-12 18:04N 37°56' E 023°37'2 3.9
2014-Aug-12 17:33N 37°57' E 023°35'0 0.3
2014-Aug-12 16:33N 37°57' E 023°35'1 1.0
2014-Aug-12 15:33N 37°57' E 023°36'0 0.0
2014-Aug-12 14:33N 37°57' E 023°36'0 0.0
2014-Aug-12 13:33N 37°57' E 023°36'0 0.0
2014-Aug-12 12:33N 37°57' E 023°36'0 0.0
2014-Aug-12 11:33N 37°57' E 023°36'  

Dump ship's entire track history